Time;durP1;ratioP1;P1;durP2;ratioP2;P2;SDS_P1;SDS_P2;PMS_P1;PMS_P2;Temp;Humidity;BMP_temperature;BMP_pressure;BME280_temperature;BME280_humidity;BME280_pressure;Samples;Min_cycle;Max_cycle;Signal;HPM_P1;HPM_P2
2022/06/04 00:00:23;;;;;;;7.57;4.38;;;;;;;12.81;100.00;163913.56;5068716;28;20139;-57
2022/06/04 00:02:50;;;;;;;8.75;2.50;;;;;;;12.76;100.00;163900.06;5069686;28;20020;-57
2022/06/04 00:05:19;;;;;;;3.67;2.72;;;;;;;12.74;100.00;163894.63;5068883;28;20524;-58
2022/06/04 00:07:44;;;;;;;;;;;;;;;12.69;100.00;163883.84;5070356;28;20036;-59
2022/06/04 00:15:47;;;;;;;3.35;2.63;;;;;;;12.53;100.00;163840.59;5068546;28;19922;-58
2022/06/04 00:18:13;;;;;;;5.43;2.95;;;;;;;12.52;100.00;163837.88;5071740;28;20023;-60
2022/06/04 00:20:39;;;;;;;4.55;2.92;;;;;;;12.46;100.00;163821.66;5072468;28;20045;-60
2022/06/04 00:23:07;;;;;;;5.20;3.35;;;;;;;12.46;100.00;163821.66;5073712;28;20396;-59
2022/06/04 00:25:34;;;;;;;3.67;3.35;;;;;;;12.44;100.00;163816.25;5071718;28;20048;-60
2022/06/04 00:28:02;;;;;;;9.68;4.35;;;;;;;12.44;100.00;163816.25;5073895;28;20482;-59
2022/06/04 00:30:27;;;;;;;7.28;3.75;;;;;;;12.35;100.00;163794.63;5072379;28;20443;-60
2022/06/04 00:32:53;;;;;;;7.40;4.60;;;;;;;12.35;100.00;163794.63;5073191;28;20060;-59
2022/06/04 00:35:18;;;;;;;6.30;3.90;;;;;;;12.30;100.00;163781.13;5072624;28;20458;-59
2022/06/04 00:37:44;;;;;;;8.15;3.92;;;;;;;12.29;100.00;163778.41;5073193;28;20508;-59
2022/06/04 00:40:14;;;;;;;6.88;3.17;;;;;;;12.32;100.00;163785.16;5071959;28;20040;-58
2022/06/04 00:42:39;;;;;;;3.40;3.15;;;;;;;12.32;100.00;163785.16;5073847;28;20032;-58
2022/06/04 00:45:32;;;;;;;5.28;3.83;;;;;;;12.28;100.00;163774.38;5071935;28;20027;-58
2022/06/04 00:47:58;;;;;;;11.88;6.15;;;;;;;12.22;100.00;163760.84;5072569;28;20039;-58
2022/06/04 00:50:23;;;;;;;5.22;4.53;;;;;;;12.18;100.00;163750.03;5071823;28;20044;-59
2022/06/04 00:52:51;;;;;;;5.90;4.68;;;;;;;12.14;100.00;163737.88;5072535;28;20028;-58
2022/06/04 00:55:18;;;;;;;16.60;5.82;;;;;;;12.05;100.00;163714.94;5071949;28;20103;-58
2022/06/04 00:58:00;;;;;;;6.53;4.10;;;;;;;12.01;100.00;163705.47;5071641;28;20029;-58
2022/06/04 01:00:33;;;;;;;7.25;5.63;;;;;;;11.96;100.00;163691.88;5071834;28;20051;-60
2022/06/04 01:03:23;;;;;;;6.30;5.38;;;;;;;11.95;100.00;163689.16;5073099;28;20032;-60
2022/06/04 01:06:05;;;;;;;11.50;5.90;;;;;;;11.87;100.00;163668.94;5071531;28;20040;-60
2022/06/04 01:08:44;;;;;;;6.47;5.57;;;;;;;11.83;100.00;163658.16;5052793;28;20036;-59
2022/06/04 01:11:15;;;;;;;8.88;5.35;;;;;;;11.81;100.00;163651.34;5051844;28;20460;-59
2022/06/04 01:14:18;;;;;;;15.60;5.88;;;;;;;11.75;100.00;163637.84;5052852;28;20028;-59
2022/06/04 01:17:08;;;;;;;9.27;5.22;;;;;;;11.72;100.00;163629.78;5051087;28;20047;-59
2022/06/04 01:19:52;;;;;;;15.10;6.07;;;;;;;11.69;100.00;163621.66;5055446;28;20032;-59
2022/06/04 01:22:48;;;;;;;12.07;8.00;;;;;;;11.61;100.00;163600.03;5071321;28;20048;-58
2022/06/04 01:25:33;;;;;;;10.55;7.28;;;;;;;11.58;100.00;163591.91;5071168;28;20157;-58
2022/06/04 01:28:06;;;;;;;8.98;6.70;;;;;;;11.55;100.00;163583.84;5072710;28;20404;-58
2022/06/04 01:30:48;;;;;;;11.20;6.38;;;;;;;11.50;100.00;163570.34;5070203;28;20487;-58
2022/06/04 01:33:24;;;;;;;12.00;6.30;;;;;;;11.45;100.00;163556.81;5073110;28;20115;-58
2022/06/04 01:35:58;;;;;;;12.65;8.50;;;;;;;11.43;100.00;163552.78;5070959;28;20040;-59
2022/06/04 01:38:32;;;;;;;7.25;5.30;;;;;;;11.39;100.00;163543.31;5072310;28;20036;-59
2022/06/04 01:41:03;;;;;;;19.60;7.88;;;;;;;11.34;100.00;163529.84;5070935;28;20519;-60
2022/06/04 01:43:33;;;;;;;13.73;7.97;;;;;;;11.35;100.00;163532.53;5072693;28;20070;-59
2022/06/04 01:46:09;;;;;;;7.45;6.75;;;;;;;11.36;100.00;163535.19;5070596;28;20036;-59
2022/06/04 01:48:40;;;;;;;13.88;6.38;;;;;;;11.35;100.00;163532.53;5072411;28;20024;-60
2022/06/04 01:51:07;;;;;;;11.98;6.50;;;;;;;11.38;100.00;163540.63;5070785;28;20079;-60
2022/06/04 01:53:36;;;;;;;7.97;6.05;;;;;;;11.37;100.00;163537.91;5072333;28;20416;-60
2022/06/04 01:56:09;;;;;;;8.55;6.55;;;;;;;11.37;100.00;163537.91;5070703;28;20059;-60
2022/06/04 01:58:44;;;;;;;12.68;6.55;;;;;;;11.38;100.00;163540.63;5072107;28;20029;-60
2022/06/04 02:01:15;;;;;;;10.55;7.18;;;;;;;11.36;100.00;163533.88;5070572;28;20427;-60
2022/06/04 02:03:47;;;;;;;8.52;5.88;;;;;;;11.36;100.00;163535.19;5071821;28;20028;-60
2022/06/04 02:06:24;;;;;;;9.45;5.88;;;;;;;11.30;100.00;163519.00;5070758;28;20136;-60
2022/06/04 02:08:57;;;;;;;11.10;6.65;;;;;;;11.24;100.00;163502.81;5071444;28;20029;-59
2022/06/04 02:11:24;;;;;;;8.23;6.35;;;;;;;11.22;100.00;163498.75;5070747;28;20075;-60
2022/06/04 02:13:54;;;;;;;9.27;6.40;;;;;;;11.20;100.00;163492.03;5072037;28;20421;-59
2022/06/04 02:16:25;;;;;;;14.13;8.07;;;;;;;11.18;100.00;163486.59;5069904;28;20060;-59
2022/06/04 02:18:50;;;;;;;15.82;8.75;;;;;;;11.13;100.00;163473.13;5071421;28;20025;-60
2022/06/04 02:21:18;;;;;;;11.45;7.20;;;;;;;11.13;100.00;163473.13;5070533;28;20037;-60
2022/06/04 02:23:45;;;;;;;9.90;6.25;;;;;;;11.08;100.00;163462.28;5071226;28;20035;-60
2022/06/04 02:26:10;;;;;;;12.18;7.97;;;;;;;11.08;100.00;163462.28;5070221;28;20040;-60
2022/06/04 02:28:36;;;;;;;13.00;7.97;;;;;;;11.05;100.00;163454.22;5071574;28;20037;-59
2022/06/04 02:32:03;;;;;;;12.15;7.07;;;;;;;11.00;100.00;163440.69;5069586;28;20039;-59
2022/06/04 02:34:38;;;;;;;11.80;6.10;;;;;;;10.95;100.00;163427.19;4986980;28;20201;-59
2022/06/04 02:37:06;;;;;;;8.70;7.85;;;;;;;10.90;100.00;163415.03;5041073;28;20037;-59
2022/06/04 02:39:51;;;;;;;10.00;8.77;;;;;;;10.88;100.00;163408.28;5051457;28;20105;-59
2022/06/04 02:42:33;;;;;;;10.82;7.13;;;;;;;10.87;100.00;163405.59;5049995;28;20037;-59
2022/06/04 02:45:10;;;;;;;12.18;7.60;;;;;;;10.83;100.00;163396.13;5050519;28;20021;-59
2022/06/04 02:47:38;;;;;;;8.23;7.43;;;;;;;10.75;100.00;163375.91;5050133;28;20144;-59
2022/06/04 02:50:08;;;;;;;9.20;8.32;;;;;;;10.77;100.00;163379.94;5049690;28;20024;-58
2022/06/04 02:52:35;;;;;;;10.38;6.63;;;;;;;10.74;100.00;163373.22;5050807;28;20037;-59
2022/06/04 02:55:10;;;;;;;11.77;9.10;;;;;;;10.72;100.00;163366.47;5049589;28;20432;-59
2022/06/04 02:57:39;;;;;;;11.70;8.90;;;;;;;10.69;100.00;163359.66;5051259;28;20111;-59
2022/06/04 03:00:08;;;;;;;17.08;9.82;;;;;;;10.65;100.00;163348.91;5048760;28;20461;-58
2022/06/04 03:02:34;;;;;;;14.88;9.73;;;;;;;10.63;100.00;163343.50;5051299;28;20031;-59
2022/06/04 03:05:08;;;;;;;15.20;7.85;;;;;;;10.62;100.00;163340.78;5049549;28;20111;-59
2022/06/04 03:07:33;;;;;;;18.10;7.97;;;;;;;10.59;100.00;163332.72;5050880;28;20021;-58
2022/06/04 03:10:07;;;;;;;11.57;8.60;;;;;;;10.58;100.00;163330.00;5049976;28;20079;-56
2022/06/04 03:12:32;;;;;;;11.00;7.18;;;;;;;10.57;100.00;163328.66;5050704;28;20052;-59
2022/06/04 03:14:58;;;;;;;13.13;8.25;;;;;;;10.53;100.00;163317.84;5050338;28;20064;-59
2022/06/04 03:17:24;;;;;;;10.40;8.57;;;;;;;10.52;100.00;163315.13;5049405;28;20107;-59
2022/06/04 03:19:50;;;;;;;13.77;9.65;;;;;;;10.53;100.00;163317.84;5050860;28;20021;-60
2022/06/04 03:22:17;;;;;;;19.35;8.68;;;;;;;10.51;100.00;163311.09;5048933;28;20048;-59
2022/06/04 03:24:42;;;;;;;10.90;8.07;;;;;;;10.52;100.00;163313.81;5050531;28;20139;-60
2022/06/04 03:27:08;;;;;;;14.95;10.35;;;;;;;10.48;100.00;163305.69;5049034;28;20036;-59
2022/06/04 03:29:33;;;;;;;12.40;9.20;;;;;;;10.48;100.00;163305.69;5050430;28;20036;-60
2022/06/04 03:31:58;;;;;;;16.27;9.50;;;;;;;10.50;100.00;163308.41;5048809;28;20037;-59
2022/06/04 03:34:24;;;;;;;11.07;7.78;;;;;;;10.50;100.00;163308.41;5050796;28;20028;-59
2022/06/04 03:36:49;;;;;;;14.13;9.60;;;;;;;10.50;100.00;163308.41;5048771;28;20550;-59
2022/06/04 03:39:14;;;;;;;11.57;7.95;;;;;;;10.45;100.00;163297.63;5050441;28;20036;-59
2022/06/04 03:41:40;;;;;;;13.48;9.77;;;;;;;10.49;100.00;163307.06;5048627;28;20048;-60
2022/06/04 03:44:06;;;;;;;15.32;9.93;;;;;;;10.50;100.00;163308.41;5050104;28;20736;-58
2022/06/04 03:46:31;;;;;;;17.40;8.85;;;;;;;10.52;100.00;163313.81;5048892;28;20097;-59
2022/06/04 03:48:57;;;;;;;16.77;8.23;;;;;;;10.54;100.00;163319.19;5050257;28;20047;-59
2022/06/04 03:51:25;;;;;;;11.10;9.65;;;;;;;10.55;100.00;163321.88;5048770;28;20094;-59
2022/06/04 03:53:50;;;;;;;11.40;8.75;;;;;;;10.53;100.00;163317.84;5049559;28;20029;-59
2022/06/04 03:56:16;;;;;;;18.95;11.00;;;;;;;10.55;100.00;163321.88;5048619;28;20049;-59
2022/06/04 03:58:42;;;;;;;18.00;12.27;;;;;;;10.50;100.00;163308.41;5049629;28;20036;-59
2022/06/04 04:01:16;;;;;;;13.35;9.52;;;;;;;10.46;100.00;163300.28;5048907;28;20033;-59
2022/06/04 04:03:42;;;;;;;15.40;9.35;;;;;;;10.57;100.00;163327.28;5049907;28;20094;-60
2022/06/04 04:06:12;;;;;;;16.77;12.05;;;;;;;10.59;100.00;163332.72;5048122;28;20124;-60
2022/06/04 04:08:37;;;;;;;16.58;10.15;;;;;;;10.60;100.00;163335.41;5049501;28;20110;-59
2022/06/04 04:11:05;;;;;;;12.05;10.73;;;;;;;10.63;100.00;163344.88;5047950;28;20033;-59
2022/06/04 04:13:30;;;;;;;13.45;10.43;;;;;;;10.67;100.00;163354.31;5048730;28;20441;-60
2022/06/04 04:15:56;;;;;;;15.35;10.68;;;;;;;10.70;100.00;163361.06;5048141;28;20041;-60
2022/06/04 04:18:21;;;;;;;15.90;10.43;;;;;;;10.74;100.00;163373.22;5050313;28;20028;-60
2022/06/04 04:20:48;;;;;;;12.27;9.88;;;;;;;10.76;100.00;163377.25;5048181;28;20094;-60
2022/06/04 04:23:14;;;;;;;10.65;8.85;;;;;;;10.83;100.00;163394.81;5050199;28;20074;-60
2022/06/04 04:25:39;;;;;;;13.68;9.25;;;;;;;10.85;100.00;163401.56;5047929;28;20059;-61
2022/06/04 04:28:06;;;;;;;11.80;10.52;;;;;;;10.88;100.00;163408.28;5049029;28;20025;-60
2022/06/04 04:30:35;;;;;;;11.35;9.88;;;;;;;10.95;100.00;163427.19;5047974;28;20045;-60
2022/06/04 04:33:01;;;;;;;14.88;11.48;;;;;;;11.07;100.00;163459.59;5049321;28;20400;-60
2022/06/04 04:35:29;;;;;;;23.73;11.98;;;;;;;11.13;100.00;163474.44;5048779;28;20143;-60
2022/06/04 04:37:55;;;;;;;12.45;8.90;;;;;;;11.17;100.00;163485.22;5049180;28;20032;-59
2022/06/04 04:40:23;;;;;;;11.98;8.98;;;;;;;11.21;100.00;163494.69;5047931;28;20467;-59
2022/06/04 04:42:48;;;;;;;12.23;9.35;;;;;;;11.21;100.00;163494.69;5046685;28;20541;-61
2022/06/04 04:45:15;;;;;;;14.52;9.65;;;;;;;11.25;100.00;163506.84;5047673;28;20243;-60
2022/06/04 04:47:44;;;;;;;11.75;8.75;;;;;;;11.30;100.00;163519.00;5049079;28;20329;-61
2022/06/04 04:50:21;;;;;;;29.63;10.98;;;;;;;11.30;100.00;163519.00;5046129;28;20043;-60
2022/06/04 04:52:48;;;;;;;16.33;11.20;;;;;;;11.31;100.00;163521.72;5049282;28;20029;-61
2022/06/04 04:55:13;;;;;;;18.10;10.82;;;;;;;11.35;100.00;163531.16;5046410;28;20040;-61
2022/06/04 04:57:39;;;;;;;12.57;9.63;;;;;;;11.36;100.00;163533.88;5048709;28;20040;-59
2022/06/04 05:00:06;;;;;;;17.80;11.30;;;;;;;11.43;100.00;163552.78;5046962;28;20156;-60
2022/06/04 05:02:32;;;;;;;12.60;8.77;;;;;;;11.48;100.00;163564.94;5048648;28;20028;-60
2022/06/04 05:04:58;;;;;;;19.38;10.15;;;;;;;11.49;100.00;163568.97;5049252;28;20033;-60
2022/06/04 05:07:23;;;;;;;17.00;10.18;;;;;;;11.55;100.00;163585.16;5050353;28;20068;-59
2022/06/04 05:09:49;;;;;;;17.60;9.43;;;;;;;11.64;100.00;163608.16;5051911;28;20040;-60
2022/06/04 05:12:14;;;;;;;13.20;7.03;;;;;;;11.61;100.00;163600.03;5050215;28;20049;-60
2022/06/04 05:14:39;;;;;;;10.40;9.10;;;;;;;11.78;100.00;163643.28;5051800;28;20020;-60
2022/06/04 05:17:05;;;;;;;13.02;8.05;;;;;;;-146.58;100.00;69501.63;5050446;28;20059;-60
2022/06/04 05:19:31;;;;;;;16.60;9.73;;;;;;;-146.58;100.00;69501.63;5051529;28;20118;-59
2022/06/04 05:21:57;;;;;;;17.05;8.90;;;;;;;11.78;100.00;163643.28;5066548;28;20151;-59
2022/06/04 05:24:26;;;;;;;10.27;8.95;;;;;;;12.02;100.00;163708.19;5071106;28;20049;-58
2022/06/04 05:26:52;;;;;;;14.40;8.18;;;;;;;12.01;100.00;163705.47;5050049;28;20036;-58
2022/06/04 05:29:19;;;;;;;15.85;8.85;;;;;;;12.06;100.00;163718.97;5071342;28;20033;-58
2022/06/04 05:31:48;;;;;;;12.23;8.57;;;;;;;12.11;100.00;163729.75;5062739;28;20045;-58
2022/06/04 05:34:15;;;;;;;11.10;7.47;;;;;;;12.25;100.00;163767.59;5070162;28;20064;-58
2022/06/04 05:36:41;;;;;;;13.18;8.82;;;;;;;12.29;100.00;163777.03;5069533;28;20120;-59
2022/06/04 05:39:07;;;;;;;13.70;10.15;;;;;;;12.41;100.00;163808.13;5071658;28;20111;-58
2022/06/04 05:41:33;;;;;;;11.15;9.05;;;;;;;12.59;100.00;163855.41;5069822;28;20044;-58
2022/06/04 05:43:59;;;;;;;9.27;7.32;;;;;;;12.69;100.00;163883.84;5071443;28;20038;-59
2022/06/04 05:46:25;;;;;;;12.82;8.25;;;;;;;12.87;100.00;163928.44;5066498;28;20049;-58
2022/06/04 05:48:50;;;;;;;13.40;7.72;;;;;;;13.04;100.00;163973.03;5068656;28;20043;-59
2022/06/04 05:51:25;;;;;;;14.55;8.93;;;;;;;13.00;100.00;163964.91;5068588;28;20044;-59
2022/06/04 05:53:52;;;;;;;14.13;9.93;;;;;;;13.09;100.00;163986.53;5070949;28;20028;-58
2022/06/04 05:56:23;;;;;;;11.38;8.25;;;;;;;13.18;100.00;164010.88;5069198;28;20042;-58
2022/06/04 05:58:51;;;;;;;8.73;7.90;;;;;;;13.27;100.00;164035.22;5070356;28;20040;-58
2022/06/04 06:01:19;;;;;;;12.60;7.30;;;;;;;13.35;100.00;164055.50;5070211;28;20036;-58
2022/06/04 06:03:45;;;;;;;9.38;7.43;;;;;;;13.30;100.00;164043.31;5069926;28;20025;-58
2022/06/04 06:06:13;;;;;;;11.82;7.60;;;;;;;13.28;100.00;164037.94;5069803;28;20040;-58
2022/06/04 06:08:39;;;;;;;9.55;7.40;;;;;;;13.47;100.00;164086.66;5070501;28;20036;-60
2022/06/04 06:11:09;;;;;;;10.60;7.43;;;;;;;13.32;100.00;164048.75;5061476;28;20044;-61
2022/06/04 06:13:34;;;;;;;11.70;8.52;;;;;;;13.52;100.00;164100.16;5063585;28;20036;-58
2022/06/04 06:16:16;;;;;;;13.05;7.57;;;;;;;13.74;100.00;164156.94;5064740;28;20044;-58
2022/06/04 06:18:42;;;;;;;7.93;6.93;;;;;;;13.74;100.00;164158.31;5062432;28;20043;-58
2022/06/04 06:21:14;;;;;;;11.20;7.47;;;;;;;13.74;100.00;164156.94;5060023;28;20041;-58
2022/06/04 06:23:40;;;;;;;14.77;7.75;;;;;;;13.76;100.00;164162.38;5060172;28;20024;-58
2022/06/04 06:26:07;;;;;;;8.90;8.00;;;;;;;13.88;100.00;164194.84;5060357;28;20139;-58
2022/06/04 06:28:35;;;;;;;10.00;7.60;;;;;;;13.95;100.00;164212.41;5063073;28;20028;-58
2022/06/04 06:31:00;;;;;;;13.50;6.63;;;;;;;13.97;100.00;164217.84;5069716;28;21002;-58
2022/06/04 06:33:25;;;;;;;8.50;6.50;;;;;;;14.22;100.00;164282.78;5071376;28;20032;-58
2022/06/04 06:36:08;;;;;;;9.85;7.25;;;;;;;14.50;100.00;164357.16;5069117;28;20483;-57
2022/06/04 06:38:34;;;;;;;9.18;6.43;;;;;;;14.71;100.00;164411.31;5071168;28;20063;-58
2022/06/04 06:41:01;;;;;;;11.00;6.05;;;;;;;14.90;100.00;164462.78;5069299;28;20041;-58
2022/06/04 06:43:33;;;;;;;10.18;6.00;;;;;;;14.86;100.00;164451.91;5070971;28;20029;-58
2022/06/04 06:46:04;;;;;;;7.13;6.13;;;;;;;14.77;100.00;164426.22;5069047;28;20059;-58
2022/06/04 06:48:30;;;;;;;12.98;8.50;;;;;;;14.78;100.00;164428.94;5068980;28;20024;-58
2022/06/04 06:50:55;;;;;;;8.02;6.97;;;;;;;14.60;100.00;164382.84;5066506;28;20082;-57
2022/06/04 06:53:20;;;;;;;8.05;7.22;;;;;;;14.72;100.00;164415.41;5066959;28;20515;-58
2022/06/04 06:55:46;;;;;;;7.15;6.45;;;;;;;14.66;100.00;164399.19;5069005;28;20399;-58
2022/06/04 06:58:11;;;;;;;14.40;6.75;;;;;;;14.55;100.00;164370.72;5069783;28;20101;-58
2022/06/04 07:00:38;;;;;;;10.13;7.10;;;;;;;14.60;100.00;164384.25;5068423;28;20059;-58
2022/06/04 07:03:04;;;;;;;9.00;6.75;;;;;;;14.77;100.00;164427.59;5070787;28;20020;-58
2022/06/04 07:05:29;;;;;;;13.90;7.10;;;;;;;14.84;100.00;164446.53;5068203;28;20095;-57
2022/06/04 07:07:54;;;;;;;11.80;7.75;;;;;;;14.98;100.00;164481.72;5070244;28;20032;-58
2022/06/04 07:10:20;;;;;;;8.57;6.00;;;;;;;15.21;100.00;164544.00;5067582;28;20089;-58
2022/06/04 07:12:45;;;;;;;8.60;5.88;;;;;;;15.29;100.00;164564.28;5069904;28;20024;-58
2022/06/04 07:15:11;;;;;;;15.75;6.07;;;;;;;15.06;100.00;164504.72;5069254;28;20020;-58
2022/06/04 07:17:37;;;;;;;14.25;6.95;;;;;;;15.10;100.00;164514.19;5070105;28;20031;-59
2022/06/04 07:20:02;;;;;;;8.75;5.53;;;;;;;15.01;100.00;164489.81;5064264;28;20028;-57
2022/06/04 07:22:27;;;;;;;8.07;6.95;;;;;;;15.10;100.00;164512.84;5069795;28;20078;-58
2022/06/04 07:24:55;;;;;;;9.50;7.25;;;;;;;15.02;100.00;164492.53;5069391;28;20415;-64
2022/06/04 07:27:20;;;;;;;11.80;7.35;;;;;;;15.22;100.00;164545.31;5066063;28;20065;-58
2022/06/04 07:29:46;;;;;;;9.38;6.35;;;;;;;15.44;100.00;164603.56;5069240;28;20541;-58
2022/06/04 07:32:11;;;;;;;11.75;6.40;;;;;;;15.65;100.00;164657.69;5068425;28;20071;-58
2022/06/04 07:34:36;;;;;;;11.52;6.97;;;;;;;15.73;100.00;164679.38;5070159;28;20396;-58
2022/06/04 07:37:02;;;;;;;9.82;6.40;;;;;;;15.96;100.00;164739.00;5068354;28;20036;-59
2022/06/04 07:39:27;;;;;;;11.30;7.63;;;;;;;16.00;100.00;164751.19;5069889;28;20025;-59
2022/06/04 07:41:54;;;;;;;7.82;6.25;;;;;;;16.12;100.00;164780.94;5067836;28;20048;-59
2022/06/04 07:44:23;;;;;;;9.68;5.72;;;;;;;16.23;100.00;164810.78;5070079;28;20460;-59
2022/06/04 07:46:49;;;;;;;8.13;5.68;;;;;;;16.24;100.00;164812.09;5068379;28;20044;-58
2022/06/04 07:49:16;;;;;;;14.98;7.85;;;;;;;16.26;100.00;164817.53;5069858;28;20021;-59
2022/06/04 07:51:45;;;;;;;7.93;6.35;;;;;;;16.36;100.00;164843.25;5068459;28;20057;-59
2022/06/04 07:54:12;;;;;;;16.33;6.65;;;;;;;15.94;100.00;164734.91;5066132;28;20508;-58
2022/06/04 07:56:39;;;;;;;9.10;6.45;;;;;;;16.10;100.00;164776.91;5067865;28;20101;-58
2022/06/04 07:59:06;;;;;;;22.13;7.53;;;;;;;16.26;100.00;164818.88;5069930;28;20111;-58
2022/06/04 08:01:31;;;;;;;7.75;6.85;;;;;;;16.30;100.00;164828.34;5068472;28;20119;-58
2022/06/04 08:03:57;;;;;;;10.82;6.10;;;;;;;16.54;100.00;164890.66;5069484;28;20112;-58
2022/06/04 08:06:23;;;;;;;9.85;7.13;;;;;;;16.78;100.00;164955.72;5068082;28;20068;-58
2022/06/04 08:08:51;;;;;;;11.82;7.97;;;;;;;17.06;100.00;165028.91;5069303;28;20075;-58
2022/06/04 08:11:31;;;;;;;11.80;7.30;;;;;;;17.21;100.00;165066.84;5067581;28;20045;-58
2022/06/04 08:13:57;;;;;;;10.82;6.78;;;;;;;17.23;100.00;165072.28;5067993;28;20153;-58
2022/06/04 08:16:23;;;;;;;8.02;5.35;;;;;;;17.57;100.00;165161.72;5067005;28;20041;-58
2022/06/04 08:18:48;;;;;;;9.88;5.30;;;;;;;17.85;100.00;165234.88;5049157;28;20025;-58
2022/06/04 08:21:14;;;;;;;8.50;6.88;;;;;;;18.08;100.00;165297.31;5048497;28;20689;-58
2022/06/04 08:23:40;;;;;;;10.05;5.85;;;;;;;18.57;100.00;165424.78;5049760;28;20481;-58
2022/06/04 08:26:08;;;;;;;7.28;6.00;;;;;;;18.39;100.00;165377.34;5047689;28;20041;-59
2022/06/04 08:28:33;;;;;;;14.55;5.95;;;;;;;18.10;100.00;165300.03;5049901;28;20422;-58
2022/06/04 08:31:04;;;;;;;8.38;5.95;;;;;;;18.45;100.00;165393.59;5048026;28;20037;-58
2022/06/04 08:33:30;;;;;;;11.60;5.85;;;;;;;18.27;100.00;165344.75;5049722;28;20021;-58
2022/06/04 08:35:56;;;;;;;7.38;5.47;;;;;;;18.89;100.00;165508.84;5048107;28;20041;-58
2022/06/04 08:38:21;;;;;;;8.70;5.63;;;;;;;19.15;100.00;165576.75;5050344;28;20080;-58
2022/06/04 08:40:50;;;;;;;14.10;5.00;;;;;;;19.26;100.00;165606.56;5051465;28;20158;-58
2022/06/04 08:43:36;;;;;;;11.30;5.80;;;;;;;19.00;100.00;165537.38;5042579;28;20369;-58
2022/06/04 08:46:09;;;;;;;9.65;7.20;;;;;;;19.05;100.00;165550.97;5031186;28;20095;-58
2022/06/04 08:48:37;;;;;;;9.40;6.28;;;;;;;19.12;100.00;165568.59;5032278;28;20025;-58
2022/06/04 08:51:18;;;;;;;11.70;5.38;;;;;;;19.34;100.00;165628.28;5029685;28;20417;-58
2022/06/04 08:53:43;;;;;;;6.53;4.88;;;;;;;19.14;100.00;165574.03;5033398;28;20029;-59
2022/06/04 08:59:32;;;;;;;10.57;5.13;;;;;;;19.10;100.00;165563.19;5033223;28;20083;-59
2022/06/04 09:02:00;;;;;;;9.30;4.55;;;;;;;19.42;100.00;165647.25;5031182;28;20076;-59
2022/06/04 09:04:50;;;;;;;9.13;4.72;;;;;;;19.92;100.00;165780.28;5038129;28;20487;-58
2022/06/04 09:07:15;;;;;;;9.88;5.93;;;;;;;20.20;100.00;165853.59;5062412;28;20048;-58
2022/06/04 09:09:55;;;;;;;7.78;6.18;;;;;;;20.56;100.00;165948.63;5058220;28;20095;-58
2022/06/04 09:12:43;;;;;;;7.95;4.65;;;;;;;20.40;100.00;165905.16;5066619;28;20119;-58
2022/06/04 09:15:29;;;;;;;5.78;4.53;;;;;;;20.04;100.00;165810.16;5067720;28;20028;-58
2022/06/04 09:17:57;;;;;;;8.43;5.00;;;;;;;20.12;100.00;165831.88;5044829;28;20428;-58
2022/06/04 09:20:45;;;;;;;7.13;5.30;;;;;;;19.31;100.00;165620.16;5040098;28;20044;-58
2022/06/04 09:23:22;;;;;;;7.45;4.93;;;;;;;19.64;100.00;165705.63;5072685;28;20036;-57
2022/06/04 09:26:13;;;;;;;6.00;4.67;;;;;;;19.85;100.00;165759.94;5070660;28;20477;-58
2022/06/04 09:29:00;;;;;;;14.05;8.13;;;;;;;19.60;100.00;165696.13;5072390;28;20613;-58
2022/06/04 09:31:44;;;;;;;12.15;5.22;;;;;;;19.52;100.00;165673.03;5071019;28;20059;-58
2022/06/04 09:34:19;;;;;;;11.98;5.78;;;;;;;19.72;100.00;165725.97;5072847;28;20025;-57
2022/06/04 09:36:46;;;;;;;7.10;5.38;;;;;;;20.00;100.00;165800.66;5070825;28;20040;-58
2022/06/04 09:39:30;;;;;;;9.45;5.75;;;;;;;20.14;100.00;165837.31;5071999;28;20391;-57
2022/06/04 09:42:03;;;;;;;9.45;5.18;;;;;;;20.07;100.00;165818.28;5070643;28;20046;-57
2022/06/04 09:44:30;;;;;;;9.13;5.35;;;;;;;20.02;100.00;165806.09;5072338;28;20456;-57
2022/06/04 09:47:05;;;;;;;6.47;5.35;;;;;;;20.04;100.00;165810.16;5070156;28;20400;-58
2022/06/04 09:49:42;;;;;;;10.43;4.35;;;;;;;19.76;100.00;165738.19;5072027;28;20021;-57
2022/06/04 09:52:22;;;;;;;6.40;4.53;;;;;;;20.08;100.00;165821.00;5070248;28;20101;-58
2022/06/04 09:54:59;;;;;;;9.57;5.38;;;;;;;20.22;100.00;165859.00;5071915;28;20032;-57
2022/06/04 09:57:26;;;;;;;8.88;5.68;;;;;;;20.37;100.00;165898.38;5070988;28;20380;-57
2022/06/04 09:59:56;;;;;;;8.20;4.90;;;;;;;20.15;100.00;165840.00;5071814;28;20043;-58
2022/06/04 10:02:22;;;;;;;6.60;3.97;;;;;;;20.27;100.00;165872.63;5070145;28;20416;-57
2022/06/04 10:04:57;;;;;;;8.18;6.50;;;;;;;20.38;100.00;165899.72;5071921;28;20017;-58
2022/06/04 10:07:37;;;;;;;9.90;6.95;;;;;;;20.54;100.00;165943.19;5069795;28;20039;-57
2022/06/04 10:10:21;;;;;;;12.05;5.22;;;;;;;20.40;100.00;165905.16;5049755;28;20025;-57
2022/06/04 10:15:47;;;;;;;9.10;5.88;;;;;;;20.56;100.00;165947.22;5050368;28;20415;-58
2022/06/04 10:18:22;;;;;;;10.43;7.88;;;;;;;20.44;100.00;165916.00;5059451;28;20383;-57
2022/06/04 10:20:58;;;;;;;8.07;5.32;;;;;;;20.53;100.00;165939.13;5069498;28;20048;-57
2022/06/04 10:23:25;;;;;;;5.68;4.55;;;;;;;20.70;100.00;165983.91;5071587;28;20039;-58
2022/06/04 10:26:10;;;;;;;9.68;5.85;;;;;;;20.59;100.00;165956.72;5070054;28;20051;-57
2022/06/04 10:29:00;;;;;;;10.18;4.93;;;;;;;20.69;100.00;165981.19;5071412;28;20025;-58
2022/06/04 10:31:47;;;;;;;8.00;4.15;;;;;;;20.90;100.00;166036.91;5050022;28;20412;-57
2022/06/04 10:34:31;;;;;;;7.30;4.78;;;;;;;21.21;100.00;166119.75;5051649;28;20075;-57
2022/06/04 10:37:12;;;;;;;11.48;5.07;;;;;;;21.14;100.00;166099.38;5054861;28;20403;-57
2022/06/04 10:39:40;;;;;;;6.70;4.10;;;;;;;20.90;100.00;166038.25;5071183;28;20126;-57
2022/06/04 10:42:46;;;;;;;4.60;4.20;;;;;;;21.01;100.00;166065.44;5069941;28;20102;-57
2022/06/04 10:45:27;;;;;;;5.40;4.25;;;;;;;20.88;100.00;166032.84;5068837;28;20039;-57
2022/06/04 10:48:06;;;;;;;10.10;4.35;;;;;;;21.18;100.00;166111.63;5069965;28;20021;-57
2022/06/04 10:53:46;;;;;;;6.47;4.80;;;;;;;21.55;100.00;166208.00;5070588;28;20595;-58
2022/06/04 10:56:18;;;;;;;6.13;4.78;;;;;;;22.14;100.00;166364.31;5069285;28;20412;-58
2022/06/04 10:58:52;;;;;;;6.70;3.90;;;;;;;22.46;100.00;166448.56;5071146;28;20032;-57
2022/06/04 11:01:31;;;;;;;9.02;3.60;;;;;;;22.52;100.00;166462.19;5069222;28;20416;-57
2022/06/04 11:04:24;;;;;;;15.23;4.60;;;;;;;22.71;100.00;166513.81;5070938;28;20032;-58
2022/06/04 11:07:13;;;;;;;6.55;3.42;;;;;;;23.08;100.00;166610.34;5069495;28;20043;-58
2022/06/04 11:09:41;;;;;;;7.72;5.25;;;;;;;23.22;100.00;166647.06;5070657;28;20063;-58
2022/06/04 11:12:29;;;;;;;5.95;4.05;;;;;;;23.12;100.00;166622.53;5069453;28;20033;-57
2022/06/04 11:15:03;;;;;;;6.55;4.30;;;;;;;22.54;100.00;166467.59;5070983;28;20032;-57
2022/06/04 11:17:49;;;;;;;9.73;4.60;;;;;;;22.64;100.00;166494.78;5069403;28;20123;-57
2022/06/04 11:20:24;;;;;;;7.22;5.38;;;;;;;22.67;100.00;166502.97;5069019;28;20035;-58
2022/06/04 11:23:20;;;;;;;7.53;4.57;;;;;;;21.99;100.00;166323.53;5070217;28;20498;-57
2022/06/04 11:25:51;;;;;;;10.27;5.28;;;;;;;22.21;100.00;166380.59;5066566;28;20076;-58
2022/06/04 11:28:26;;;;;;;8.68;4.93;;;;;;;22.09;100.00;166350.69;5049160;28;20060;-57
2022/06/04 11:30:58;;;;;;;6.63;4.65;;;;;;;22.16;100.00;166369.72;5048823;28;20040;-57
2022/06/04 11:33:48;;;;;;;7.07;5.25;;;;;;;22.09;100.00;166350.69;5050711;28;20112;-57
2022/06/04 11:36:38;;;;;;;7.05;5.05;;;;;;;22.11;100.00;166356.13;5049998;28;20044;-57
2022/06/04 11:39:38;;;;;;;7.38;5.80;;;;;;;22.33;100.00;166413.19;5069080;28;20031;-57
2022/06/04 11:42:34;;;;;;;6.00;5.28;;;;;;;22.30;100.00;166405.06;5068824;28;20052;-57
2022/06/04 11:45:08;;;;;;;9.32;5.05;;;;;;;22.59;100.00;166481.22;5069657;28;20537;-57